• Join FlightAware (Why Join?)
  • Login
  • US Flag 
01:05AM EDT


 

Airport Tracker/Info


-or-


 

Live Flight TrackerFlight Track Log ✈ UAL583 ✈ 07-May-2013 ✈ KPHL - KORD

Flight Track Log - Related Links

Times and Time Zones

All times are in EDT time to prevent confusion due to time zone crossing. See the UAL583 flight status page for this flight to view local times or setup timezone preferences in your user account.

Time Position Orientation Groundspeed Altitude Reporting Facility
EDT Latitude Longitude Course Direction KTS MPH feet Rate Location/Type
06:26AM 39.8833 -75.2167 311° West 145 167 800  Level Philadelphia TRACON
06:27AM 39.9000 -75.1500 72° East 207 238 2,700 2,280 Climbing Philadelphia TRACON
06:28AM 39.9333 -75.0833 57° Northeast 244 281 5,700 2,880 Climbing Philadelphia TRACON
06:29AM 40.1368 -75.4867 323° Northwest  Level FlightAware Approximate
06:29AM 39.9833 -75.1167 333° Northwest 293 337 8,500  Level Philadelphia TRACON
06:30AM 40.2266 -75.5648 311° West  Level FlightAware Approximate
06:30AM 40.0333 -75.2000 308° West 300 345 9,700  Level Philadelphia TRACON
06:31AM 40.2998 -75.6747 311° West  Level FlightAware Approximate
06:32AM 40.1136 -75.3661 302° West 388 447 10,600  Level New York Center
06:33AM 40.1797 -75.4844 306° West 375 432 13,500 2,760 Climbing New York Center
06:34AM 40.2442 -75.5950 307° West 375 432 16,000 1,740 Climbing New York Center
06:35AM 40.3092 -75.6894 312° West 386 444 17,000 1,260 Climbing New York Center
06:36AM 40.3797 -75.7953 311° West 391 450 18,600 960 Climbing New York Center
06:37AM 40.4414 -75.9089 306° West 391 450 19,000 780 Climbing New York Center
06:38AM 40.4681 -76.0608 283° West 382 440 20,200 1,500 Climbing New York Center
06:39AM 40.4889 -76.2017 281° West 392 451 22,100 1,800 Climbing New York Center
06:40AM 40.5108 -76.3536 281° West 406 467 23,800 1,560 Climbing New York Center
06:41AM 40.5369 -76.5058 283° West 420 483 25,200 1,380 Climbing New York Center
06:42AM 40.5583 -76.6661 280° West 436 502 26,700 1,500 Climbing New York Center
06:43AM 40.5731 -76.8286 277° West 441 507 28,200 1,440 Climbing New York Center
06:44AM 40.5875 -76.9911 277° West 451 519 29,600 1,260 Climbing New York Center
06:45AM 40.6011 -77.1619 276° West 462 532 30,800 1,200 Climbing New York Center
06:46AM 40.6192 -77.3306 278° West 468 539 32,100 1,260 Climbing New York Center
06:47AM 40.6328 -77.4958 276° West 468 539 33,400 1,200 Climbing New York Center
06:49AM 40.6594 -77.8322 276° West 471 542 35,800 840 Climbing Cleveland Center
06:50AM 40.6819 -77.9983 280° West 466 536 36,000 60 Climbing Cleveland Center
06:51AM 40.7067 -78.1672 281° West 466 536 36,000  Level Cleveland Center
06:52AM 40.7311 -78.3472 280° West 466 536 36,000  Level Cleveland Center
06:53AM 40.7531 -78.5164 280° West 466 536 36,000  Level Cleveland Center
06:54AM 40.7747 -78.6858 280° West 466 536 36,000  Level Cleveland Center
06:55AM 40.7983 -78.8525 281° West 466 536 36,000  Level Cleveland Center
06:56AM 40.8236 -79.0192 281° West 466 536 36,000  Level Cleveland Center
06:57AM 40.8444 -79.1861 279° West 466 536 36,000  Level Cleveland Center
06:58AM 40.8653 -79.3531 279° West 466 536 36,000  Level Cleveland Center
06:59AM 40.8878 -79.5231 280° West 466 536 36,000  Level Cleveland Center
07:00AM 40.9081 -79.6903 279° West 466 536 36,000  Level Cleveland Center
07:01AM 40.9278 -79.8575 279° West 466 536 36,000  Level Cleveland Center
07:02AM 40.9497 -80.0278 280° West 466 536 36,000  Level Cleveland Center
07:03AM 40.9692 -80.1953 279° West 466 536 36,000  Level Cleveland Center
07:04AM 40.9906 -80.3658 279° West 466 536 36,000  Level Cleveland Center
07:05AM 41.0114 -80.5364 279° West 466 536 36,000  Level Cleveland Center
07:06AM 41.0303 -80.7042 279° West 466 536 36,000  Level Cleveland Center
07:07AM 41.0486 -80.8750 278° West 466 536 36,000  Level Cleveland Center
07:08AM 41.0606 -81.0486 275° West 471 542 36,000  Level Cleveland Center
07:09AM 41.0661 -81.2028 273° West 476 548 36,000  Level Cleveland Center
07:10AM 41.0794 -81.3958 275° West 476 548 36,000  Level Cleveland Center
07:11AM 41.0886 -81.5694 274° West 476 548 36,000  Level Cleveland Center
07:12AM 41.0972 -81.7431 274° West 481 554 36,000  Level Cleveland Center
07:13AM 41.1078 -81.9197 275° West 481 554 36,000  Level Cleveland Center
07:14AM 41.1203 -82.0964 275° West 481 554 36,000  Level Cleveland Center
07:15AM 41.1286 -82.2508 274° West 481 554 36,000  Level Cleveland Center
07:16AM 41.1383 -82.4250 274° West 481 554 36,000  Level Cleveland Center
07:17AM 41.1478 -82.6017 274° West 481 554 36,000  Level Cleveland Center
07:18AM 41.1550 -82.7756 273° West 481 554 36,000  Level Cleveland Center
07:19AM 41.1642 -82.9497 274° West 481 554 36,000  Level Cleveland Center
07:20AM 41.1747 -83.1378 274° West 481 554 36,000  Level Cleveland Center
07:21AM 41.1814 -83.2953 273° West 476 548 36,000  Level Cleveland Center
07:22AM 41.1878 -83.4667 273° West 476 548 36,000  Level Cleveland Center
07:23AM 41.1956 -83.6436 273° West 476 548 36,000  Level Cleveland Center
07:24AM 41.2033 -83.8178 273° West 481 554 36,000  Level Cleveland Center
07:25AM 41.2150 -83.9894 275° West 481 554 36,100  Climbing Cleveland Center
07:26AM 41.2203 -84.1611 272° West 476 548 36,000 -60 Descending Cleveland Center
07:27AM 41.2253 -84.2897 273° West 468 539 36,000 -960 Level Chicago Center
07:28AM 41.2303 -84.4647 272° West 472 543 34,300 -1,020 Descending Chicago Center
07:29AM 41.2353 -84.6453 272° West 487 560 34,000 -180 Descending Chicago Center
07:30AM 41.2406 -84.8336 272° West 507 583 34,000  Level Chicago Center
07:31AM 41.2481 -85.0575 273° West 505 581 34,000  Level Chicago Center
07:32AM 41.2531 -85.2419 272° West 499 574 34,000 -300 Level Chicago Center
07:33AM 41.2581 -85.4275 272° West 498 573 33,400 -1,740 Descending Chicago Center
07:34AM 41.2622 -85.6108 272° West 494 568 30,500 -3,660 Descending Chicago Center
07:35AM 41.2656 -85.7956 271° West 496 571 26,000 -2,700 Descending Chicago Center
07:36AM 41.2897 -85.9700 281° West 470 541 25,000 -540 Descending Chicago Center
07:37AM 41.3281 -86.1322 288° West 458 527 25,000 -300 Level Chicago Center
07:38AM 41.3647 -86.2947 287° West 459 528 24,500 -1,380 Descending Chicago Center
07:39AM 41.4019 -86.4544 287° West 454 522 22,200 -2,280 Descending Chicago Center
07:40AM 41.4372 -86.6067 287° West 433 498 19,900 -2,280 Descending Chicago Center
07:41AM 41.4719 -86.7600 287° West 418 481 17,600 -2,460 Descending Chicago Center
07:42AM 41.5103 -86.9289 287° West 401 461 14,900 -2,280 Descending Chicago Center
07:43AM 41.5411 -87.0650 287° West 390 449 13,000 -2,160 Descending Chicago Center
07:44AM 41.5667 -87.1833 286° West 365 420 10,700 -1,080 Descending Chicago TRACON
07:46AM 41.6833 -87.4000 306° West 346 398 10,000 -240 Descending Chicago TRACON
07:47AM 41.7386 -87.4975 307° West 344 396 10,000 -480 Level Chicago Center
07:48AM 41.8000 -87.6008 309° West 302 348 9,000 -1,260 Descending Chicago Center
07:49AM 41.8000 -87.6833 270° West 290 334 7,700 -1,140 Descending Chicago TRACON
07:50AM 41.8167 -87.7833 283° West 283 326 7,000 -480 Descending Chicago TRACON
07:51AM 41.8167 -87.8833 270° West 256 295 6,900 -360 Descending Chicago TRACON
07:51AM 41.8175 -87.9003 274° West 256 295 6,600 -1,440 Descending Chicago Center
07:52AM 41.8011 -87.9833 255° West 240 276 4,900 -1,680 Descending Chicago Center